sensor_id;sensor_type;location;lat;lon;timestamp;pressure;altitude;pressure_sealevel;temperature;humidity
46690;BME280;32423;45.398;10.874;2022-12-18T00:02:19;101910.97;;;8.48;61.24
46690;BME280;32423;45.398;10.874;2022-12-18T00:05:04;101908.78;;;8.25;61.77
46690;BME280;32423;45.398;10.874;2022-12-18T00:07:49;101894.16;;;8.46;60.71
46690;BME280;32423;45.398;10.874;2022-12-18T00:10:33;101904.44;;;8.29;61.23
46690;BME280;32423;45.398;10.874;2022-12-18T00:13:18;101902.50;;;8.04;61.40
46690;BME280;32423;45.398;10.874;2022-12-18T00:16:03;101902.56;;;8.35;61.60
46690;BME280;32423;45.398;10.874;2022-12-18T00:18:48;101912.31;;;8.36;61.45
46690;BME280;32423;45.398;10.874;2022-12-18T00:21:33;101909.84;;;8.24;61.71
46690;BME280;32423;45.398;10.874;2022-12-18T00:24:18;101913.63;;;8.13;62.38
46690;BME280;32423;45.398;10.874;2022-12-18T00:27:02;101903.91;;;8.27;62.38
46690;BME280;32423;45.398;10.874;2022-12-18T00:29:47;101913.09;;;8.26;62.08
46690;BME280;32423;45.398;10.874;2022-12-18T00:32:32;101921.28;;;8.41;62.21
46690;BME280;32423;45.398;10.874;2022-12-18T00:35:17;101921.75;;;8.23;62.79
46690;BME280;32423;45.398;10.874;2022-12-18T00:38:01;101924.22;;;7.32;65.62
46690;BME280;32423;45.398;10.874;2022-12-18T00:40:46;101919.88;;;7.26;65.95
46690;BME280;32423;45.398;10.874;2022-12-18T00:43:30;101924.75;;;6.82;67.78
46690;BME280;32423;45.398;10.874;2022-12-18T00:46:18;101924.59;;;6.99;67.66
46690;BME280;32423;45.398;10.874;2022-12-18T00:49:02;101930.13;;;7.19;67.32
46690;BME280;32423;45.398;10.874;2022-12-18T00:51:47;101939.19;;;6.98;67.81
46690;BME280;32423;45.398;10.874;2022-12-18T00:54:32;101943.78;;;7.44;66.05
46690;BME280;32423;45.398;10.874;2022-12-18T00:57:16;101944.28;;;6.89;68.02
46690;BME280;32423;45.398;10.874;2022-12-18T01:00:02;101948.59;;;7.37;66.97
46690;BME280;32423;45.398;10.874;2022-12-18T01:02:47;101943.81;;;7.02;68.10
46690;BME280;32423;45.398;10.874;2022-12-18T01:05:31;101953.72;;;8.01;64.28
46690;BME280;32423;45.398;10.874;2022-12-18T01:08:16;101960.22;;;8.10;64.11
46690;BME280;32423;45.398;10.874;2022-12-18T01:11:06;101969.16;;;8.10;64.18
46690;BME280;32423;45.398;10.874;2022-12-18T01:13:52;101973.75;;;8.00;64.14
46690;BME280;32423;45.398;10.874;2022-12-18T01:16:40;101982.44;;;8.02;63.47
46690;BME280;32423;45.398;10.874;2022-12-18T01:19:24;101975.16;;;8.23;62.81
46690;BME280;32423;45.398;10.874;2022-12-18T01:22:08;101983.59;;;8.36;62.60
46690;BME280;32423;45.398;10.874;2022-12-18T01:24:53;101992.47;;;7.44;65.31
46690;BME280;32423;45.398;10.874;2022-12-18T01:27:40;102004.59;;;7.89;64.00
46690;BME280;32423;45.398;10.874;2022-12-18T01:30:25;102003.31;;;8.11;63.08
46690;BME280;32423;45.398;10.874;2022-12-18T01:33:10;102003.69;;;7.73;64.60
46690;BME280;32423;45.398;10.874;2022-12-18T01:35:55;102003.34;;;8.22;63.45
46690;BME280;32423;45.398;10.874;2022-12-18T01:38:39;102008.44;;;8.18;63.34
46690;BME280;32423;45.398;10.874;2022-12-18T01:41:24;102009.44;;;7.77;64.40
46690;BME280;32423;45.398;10.874;2022-12-18T01:47:18;102017.38;;;8.08;64.13
46690;BME280;32423;45.398;10.874;2022-12-18T01:50:06;102017.44;;;8.29;63.85
46690;BME280;32423;45.398;10.874;2022-12-18T01:52:52;102025.34;;;8.45;63.23
46690;BME280;32423;45.398;10.874;2022-12-18T01:55:48;102025.94;;;8.63;62.75
46690;BME280;32423;45.398;10.874;2022-12-18T01:58:55;102033.47;;;8.35;64.17
46690;BME280;32423;45.398;10.874;2022-12-18T02:01:43;102024.38;;;7.99;65.73
46690;BME280;32423;45.398;10.874;2022-12-18T02:04:27;102032.06;;;8.18;65.76
46690;BME280;32423;45.398;10.874;2022-12-18T02:07:21;102040.28;;;8.43;64.83
46690;BME280;32423;45.398;10.874;2022-12-18T02:13:46;102039.47;;;8.57;64.82
46690;BME280;32423;45.398;10.874;2022-12-18T02:16:57;102039.47;;;8.42;65.90
46690;BME280;32423;45.398;10.874;2022-12-18T02:19:47;102052.66;;;8.29;66.06
46690;BME280;32423;45.398;10.874;2022-12-18T02:28:09;102044.97;;;7.95;68.46
46690;BME280;32423;45.398;10.874;2022-12-18T02:30:57;102044.22;;;8.10;67.30
46690;BME280;32423;45.398;10.874;2022-12-18T02:33:43;102052.16;;;7.27;70.66
46690;BME280;32423;45.398;10.874;2022-12-18T02:36:30;102059.00;;;7.82;70.13
46690;BME280;32423;45.398;10.874;2022-12-18T02:39:16;102065.44;;;8.33;67.89
46690;BME280;32423;45.398;10.874;2022-12-18T02:42:15;102063.31;;;8.45;67.28
46690;BME280;32423;45.398;10.874;2022-12-18T02:45:01;102074.97;;;8.46;67.22
46690;BME280;32423;45.398;10.874;2022-12-18T02:47:47;102082.28;;;8.50;67.14
46690;BME280;32423;45.398;10.874;2022-12-18T02:53:17;102081.25;;;8.72;66.34
46690;BME280;32423;45.398;10.874;2022-12-18T02:59:08;102084.47;;;8.69;66.32
46690;BME280;32423;45.398;10.874;2022-12-18T03:10:45;102091.03;;;8.83;65.13
46690;BME280;32423;45.398;10.874;2022-12-18T03:16:25;102079.63;;;8.81;64.70
46690;BME280;32423;45.398;10.874;2022-12-18T03:19:11;102078.81;;;8.85;64.05
46690;BME280;32423;45.398;10.874;2022-12-18T03:22:00;102079.63;;;8.76;64.30
46690;BME280;32423;45.398;10.874;2022-12-18T03:24:53;102081.53;;;8.80;64.11
46690;BME280;32423;45.398;10.874;2022-12-18T03:27:39;102078.25;;;8.58;65.33
46690;BME280;32423;45.398;10.874;2022-12-18T03:30:29;102075.13;;;8.24;66.67
46690;BME280;32423;45.398;10.874;2022-12-18T03:33:16;102079.94;;;8.02;68.11
46690;BME280;32423;45.398;10.874;2022-12-18T03:36:06;102084.03;;;8.14;67.44
46690;BME280;32423;45.398;10.874;2022-12-18T03:38:51;102081.63;;;8.28;66.70
46690;BME280;32423;45.398;10.874;2022-12-18T03:50:48;102099.94;;;8.53;64.23
46690;BME280;32423;45.398;10.874;2022-12-18T03:56:26;102094.22;;;8.49;64.46
46690;BME280;32423;45.398;10.874;2022-12-18T03:59:12;102101.31;;;8.66;63.51
46690;BME280;32423;45.398;10.874;2022-12-18T04:02:00;102110.78;;;8.53;63.72
46690;BME280;32423;45.398;10.874;2022-12-18T04:04:46;102114.25;;;8.43;64.11
46690;BME280;32423;45.398;10.874;2022-12-18T04:07:32;102120.28;;;8.61;64.08
46690;BME280;32423;45.398;10.874;2022-12-18T04:10:17;102128.34;;;8.45;64.77
46690;BME280;32423;45.398;10.874;2022-12-18T04:13:03;102117.28;;;8.52;64.05
46690;BME280;32423;45.398;10.874;2022-12-18T04:15:47;102125.41;;;8.52;64.21
46690;BME280;32423;45.398;10.874;2022-12-18T04:18:33;102120.00;;;8.57;63.34
46690;BME280;32423;45.398;10.874;2022-12-18T04:21:19;102121.63;;;8.58;62.90
46690;BME280;32423;45.398;10.874;2022-12-18T04:24:06;102124.06;;;8.65;62.61
46690;BME280;32423;45.398;10.874;2022-12-18T04:26:52;102134.31;;;8.42;63.43
46690;BME280;32423;45.398;10.874;2022-12-18T04:29:43;102138.53;;;8.23;64.14
46690;BME280;32423;45.398;10.874;2022-12-18T04:32:28;102146.16;;;8.26;64.53
46690;BME280;32423;45.398;10.874;2022-12-18T04:35:12;102149.91;;;8.20;64.71
46690;BME280;32423;45.398;10.874;2022-12-18T04:38:02;102150.25;;;8.34;64.94
46690;BME280;32423;45.398;10.874;2022-12-18T04:40:47;102146.97;;;8.27;65.06
46690;BME280;32423;45.398;10.874;2022-12-18T04:43:39;102147.28;;;8.30;65.10
46690;BME280;32423;45.398;10.874;2022-12-18T04:46:25;102153.28;;;8.37;65.05
46690;BME280;32423;45.398;10.874;2022-12-18T04:49:09;102152.00;;;8.60;63.84
46690;BME280;32423;45.398;10.874;2022-12-18T04:51:58;102166.03;;;7.95;65.47
46690;BME280;32423;45.398;10.874;2022-12-18T04:54:42;102166.16;;;8.20;65.21
46690;BME280;32423;45.398;10.874;2022-12-18T04:57:27;102176.88;;;8.42;63.87
46690;BME280;32423;45.398;10.874;2022-12-18T05:00:12;102177.44;;;7.97;65.18
46690;BME280;32423;45.398;10.874;2022-12-18T05:02:56;102170.63;;;8.36;64.15
46690;BME280;32423;45.398;10.874;2022-12-18T05:05:41;102171.19;;;8.48;63.58
46690;BME280;32423;45.398;10.874;2022-12-18T05:08:25;102174.47;;;8.55;62.91
46690;BME280;32423;45.398;10.874;2022-12-18T05:11:11;102186.25;;;8.29;64.13
46690;BME280;32423;45.398;10.874;2022-12-18T05:13:58;102191.75;;;8.39;63.33
46690;BME280;32423;45.398;10.874;2022-12-18T05:16:42;102196.94;;;8.46;63.30
46690;BME280;32423;45.398;10.874;2022-12-18T05:19:27;102187.50;;;8.58;62.86
46690;BME280;32423;45.398;10.874;2022-12-18T05:22:11;102190.50;;;8.57;62.48
46690;BME280;32423;45.398;10.874;2022-12-18T05:24:56;102198.03;;;8.50;62.45
46690;BME280;32423;45.398;10.874;2022-12-18T05:27:40;102196.75;;;8.63;62.46
46690;BME280;32423;45.398;10.874;2022-12-18T05:30:25;102197.22;;;8.49;62.71
46690;BME280;32423;45.398;10.874;2022-12-18T05:33:10;102208.34;;;8.48;63.37
46690;BME280;32423;45.398;10.874;2022-12-18T05:35:55;102208.38;;;8.11;64.99
46690;BME280;32423;45.398;10.874;2022-12-18T05:38:40;102218.19;;;8.17;64.80
46690;BME280;32423;45.398;10.874;2022-12-18T05:41:24;102218.31;;;8.32;64.04
46690;BME280;32423;45.398;10.874;2022-12-18T05:44:09;102228.56;;;8.30;63.92
46690;BME280;32423;45.398;10.874;2022-12-18T05:46:53;102226.44;;;8.32;63.35
46690;BME280;32423;45.398;10.874;2022-12-18T05:49:38;102237.34;;;8.42;63.17
46690;BME280;32423;45.398;10.874;2022-12-18T05:52:22;102233.19;;;8.30;63.61
46690;BME280;32423;45.398;10.874;2022-12-18T05:55:07;102235.25;;;8.18;64.30
46690;BME280;32423;45.398;10.874;2022-12-18T05:57:52;102227.91;;;8.13;64.23
46690;BME280;32423;45.398;10.874;2022-12-18T06:00:37;102236.59;;;8.15;64.11
46690;BME280;32423;45.398;10.874;2022-12-18T06:03:23;102244.78;;;8.25;64.06
46690;BME280;32423;45.398;10.874;2022-12-18T06:09:03;102260.56;;;8.33;62.77
46690;BME280;32423;45.398;10.874;2022-12-18T06:11:52;102258.88;;;8.22;62.95
46690;BME280;32423;45.398;10.874;2022-12-18T06:14:36;102263.63;;;8.05;64.44
46690;BME280;32423;45.398;10.874;2022-12-18T06:17:21;102278.75;;;7.69;65.88
46690;BME280;32423;45.398;10.874;2022-12-18T06:20:06;102287.66;;;7.96;65.06
46690;BME280;32423;45.398;10.874;2022-12-18T06:22:51;102284.00;;;8.12;64.04
46690;BME280;32423;45.398;10.874;2022-12-18T06:25:39;102283.44;;;8.10;63.56
46690;BME280;32423;45.398;10.874;2022-12-18T06:28:24;102294.47;;;8.04;62.95
46690;BME280;32423;45.398;10.874;2022-12-18T06:31:08;102301.31;;;8.11;62.70
46690;BME280;32423;45.398;10.874;2022-12-18T06:33:53;102305.41;;;8.14;62.58
46690;BME280;32423;45.398;10.874;2022-12-18T06:36:38;102298.28;;;8.08;62.81
46690;BME280;32423;45.398;10.874;2022-12-18T06:39:22;102292.06;;;8.02;63.35
46690;BME280;32423;45.398;10.874;2022-12-18T06:42:06;102305.84;;;8.01;63.38
46690;BME280;32423;45.398;10.874;2022-12-18T06:44:51;102312.38;;;8.05;63.19
46690;BME280;32423;45.398;10.874;2022-12-18T06:47:35;102312.09;;;8.01;63.62
46690;BME280;32423;45.398;10.874;2022-12-18T06:50:20;102307.78;;;8.05;63.52
46690;BME280;32423;45.398;10.874;2022-12-18T06:53:04;102310.34;;;7.90;64.14
46690;BME280;32423;45.398;10.874;2022-12-18T06:55:49;102315.53;;;7.92;63.63
46690;BME280;32423;45.398;10.874;2022-12-18T06:58:33;102325.06;;;7.99;63.43
46690;BME280;32423;45.398;10.874;2022-12-18T07:01:18;102323.16;;;8.00;63.43
46690;BME280;32423;45.398;10.874;2022-12-18T07:04:02;102322.09;;;8.01;63.20
46690;BME280;32423;45.398;10.874;2022-12-18T07:06:47;102332.72;;;8.07;63.18
46690;BME280;32423;45.398;10.874;2022-12-18T07:09:31;102339.78;;;8.13;63.01
46690;BME280;32423;45.398;10.874;2022-12-18T07:12:16;102337.41;;;8.17;62.96
46690;BME280;32423;45.398;10.874;2022-12-18T07:15:00;102344.69;;;8.11;62.88
46690;BME280;32423;45.398;10.874;2022-12-18T07:17:45;102354.47;;;8.18;63.19
46690;BME280;32423;45.398;10.874;2022-12-18T07:20:29;102353.25;;;8.03;63.84
46690;BME280;32423;45.398;10.874;2022-12-18T07:23:14;102365.66;;;7.94;64.96
46690;BME280;32423;45.398;10.874;2022-12-18T07:26:06;102357.59;;;7.24;65.62
46690;BME280;32423;45.398;10.874;2022-12-18T07:28:53;102363.53;;;6.82;67.29
46690;BME280;32423;45.398;10.874;2022-12-18T07:31:38;102371.56;;;6.39;68.36
46690;BME280;32423;45.398;10.874;2022-12-18T07:34:23;102371.53;;;5.89;70.60
46690;BME280;32423;45.398;10.874;2022-12-18T07:37:07;102375.06;;;5.49;72.78
46690;BME280;32423;45.398;10.874;2022-12-18T07:39:52;102372.88;;;5.06;75.58
46690;BME280;32423;45.398;10.874;2022-12-18T07:42:36;102379.31;;;5.05;75.97
46690;BME280;32423;45.398;10.874;2022-12-18T07:45:21;102384.94;;;5.04;76.73
46690;BME280;32423;45.398;10.874;2022-12-18T07:48:05;102388.53;;;5.21;75.76
46690;BME280;32423;45.398;10.874;2022-12-18T07:50:50;102395.28;;;5.35;75.48
46690;BME280;32423;45.398;10.874;2022-12-18T07:53:34;102395.09;;;5.13;76.08
46690;BME280;32423;45.398;10.874;2022-12-18T07:56:20;102404.72;;;5.21;76.33
46690;BME280;32423;45.398;10.874;2022-12-18T07:59:04;102408.13;;;5.28;76.70
46690;BME280;32423;45.398;10.874;2022-12-18T08:01:49;102424.66;;;5.60;76.09
46690;BME280;32423;45.398;10.874;2022-12-18T08:04:33;102431.03;;;6.11;74.15
46690;BME280;32423;45.398;10.874;2022-12-18T08:07:18;102429.84;;;5.90;73.79
46690;BME280;32423;45.398;10.874;2022-12-18T08:10:02;102435.94;;;5.85;74.54
46690;BME280;32423;45.398;10.874;2022-12-18T08:12:50;102447.22;;;5.94;74.52
46690;BME280;32423;45.398;10.874;2022-12-18T08:15:35;102449.34;;;5.80;75.20
46690;BME280;32423;45.398;10.874;2022-12-18T08:18:19;102448.59;;;5.96;74.56
46690;BME280;32423;45.398;10.874;2022-12-18T08:24:11;102462.72;;;6.15;74.10
46690;BME280;32423;45.398;10.874;2022-12-18T08:26:56;102469.44;;;6.13;74.07
46690;BME280;32423;45.398;10.874;2022-12-18T08:29:41;102464.84;;;6.13;74.12
46690;BME280;32423;45.398;10.874;2022-12-18T08:32:26;102476.16;;;6.27;74.40
46690;BME280;32423;45.398;10.874;2022-12-18T08:35:11;102475.25;;;6.21;74.63
46690;BME280;32423;45.398;10.874;2022-12-18T08:37:56;102477.94;;;6.21;74.78
46690;BME280;32423;45.398;10.874;2022-12-18T08:40:40;102484.41;;;6.20;75.00
46690;BME280;32423;45.398;10.874;2022-12-18T08:43:24;102492.41;;;6.15;75.39
46690;BME280;32423;45.398;10.874;2022-12-18T08:46:31;102491.59;;;6.15;74.87
46690;BME280;32423;45.398;10.874;2022-12-18T08:49:16;102493.16;;;6.11;75.30
46690;BME280;32423;45.398;10.874;2022-12-18T08:52:00;102501.81;;;6.41;74.60
46690;BME280;32423;45.398;10.874;2022-12-18T08:54:46;102504.00;;;6.27;74.81
46690;BME280;32423;45.398;10.874;2022-12-18T08:57:31;102505.38;;;6.30;75.05
46690;BME280;32423;45.398;10.874;2022-12-18T09:00:15;102504.91;;;6.33;73.98
46690;BME280;32423;45.398;10.874;2022-12-18T09:02:59;102509.19;;;7.12;72.88
46690;BME280;32423;45.398;10.874;2022-12-18T09:05:45;102513.22;;;7.48;70.81
46690;BME280;32423;45.398;10.874;2022-12-18T09:08:30;102524.97;;;7.76;70.08
46690;BME280;32423;45.398;10.874;2022-12-18T09:11:23;102516.84;;;7.97;69.37
46690;BME280;32423;45.398;10.874;2022-12-18T09:14:08;102526.44;;;8.10;68.79
46690;BME280;32423;45.398;10.874;2022-12-18T09:16:53;102519.16;;;8.10;68.56
46690;BME280;32423;45.398;10.874;2022-12-18T09:19:37;102522.78;;;8.21;68.42
46690;BME280;32423;45.398;10.874;2022-12-18T09:22:21;102521.13;;;8.42;66.91
46690;BME280;32423;45.398;10.874;2022-12-18T09:25:06;102516.72;;;8.63;66.01
46690;BME280;32423;45.398;10.874;2022-12-18T09:27:52;102515.47;;;8.75;65.44
46690;BME280;32423;45.398;10.874;2022-12-18T09:30:40;102516.22;;;8.71;64.77
46690;BME280;32423;45.398;10.874;2022-12-18T09:33:25;102521.44;;;8.77;64.02
46690;BME280;32423;45.398;10.874;2022-12-18T09:36:10;102525.47;;;8.75;63.07
46690;BME280;32423;45.398;10.874;2022-12-18T09:50:39;102515.38;;;8.97;60.42
46690;BME280;32423;45.398;10.874;2022-12-18T09:53:26;102507.25;;;9.02;59.86
46690;BME280;32423;45.398;10.874;2022-12-18T09:56:12;102508.91;;;9.03;59.78
46690;BME280;32423;45.398;10.874;2022-12-18T09:59:00;102520.66;;;9.14;59.70
46690;BME280;32423;45.398;10.874;2022-12-18T10:01:44;102514.41;;;9.13;59.81
46690;BME280;32423;45.398;10.874;2022-12-18T10:04:29;102510.38;;;9.21;57.95
46690;BME280;32423;45.398;10.874;2022-12-18T10:07:24;102507.94;;;9.19;58.35
46690;BME280;32423;45.398;10.874;2022-12-18T10:25:02;102495.09;;;9.62;57.66
46690;BME280;32423;45.398;10.874;2022-12-18T10:27:52;102496.25;;;9.76;57.47
46690;BME280;32423;45.398;10.874;2022-12-18T10:30:38;102495.69;;;9.64;57.78
46690;BME280;32423;45.398;10.874;2022-12-18T10:33:23;102500.13;;;9.85;58.01
46690;BME280;32423;45.398;10.874;2022-12-18T10:36:08;102497.66;;;9.83;58.21
46690;BME280;32423;45.398;10.874;2022-12-18T10:38:53;102500.84;;;9.70;58.19
46690;BME280;32423;45.398;10.874;2022-12-18T10:41:38;102505.19;;;9.66;58.25
46690;BME280;32423;45.398;10.874;2022-12-18T10:44:22;102495.97;;;9.72;57.29
46690;BME280;32423;45.398;10.874;2022-12-18T10:47:11;102500.81;;;9.65;58.01
46690;BME280;32423;45.398;10.874;2022-12-18T10:49:56;102504.09;;;9.62;58.49
46690;BME280;32423;45.398;10.874;2022-12-18T10:52:41;102492.19;;;9.73;58.93
46690;BME280;32423;45.398;10.874;2022-12-18T10:55:38;102497.94;;;9.87;58.20
46690;BME280;32423;45.398;10.874;2022-12-18T10:58:25;102493.91;;;10.00;58.20
46690;BME280;32423;45.398;10.874;2022-12-18T11:01:17;102496.84;;;9.83;58.89
46690;BME280;32423;45.398;10.874;2022-12-18T11:04:04;102495.66;;;9.59;59.68
46690;BME280;32423;45.398;10.874;2022-12-18T11:06:52;102490.72;;;9.51;60.03
46690;BME280;32423;45.398;10.874;2022-12-18T11:09:38;102489.50;;;9.26;60.32
46690;BME280;32423;45.398;10.874;2022-12-18T11:12:23;102484.06;;;9.26;60.57
46690;BME280;32423;45.398;10.874;2022-12-18T11:15:14;102477.59;;;9.32;62.21
46690;BME280;32423;45.398;10.874;2022-12-18T11:17:59;102479.25;;;9.38;61.43
46690;BME280;32423;45.398;10.874;2022-12-18T11:20:43;102483.66;;;9.50;62.20
46690;BME280;32423;45.398;10.874;2022-12-18T11:23:34;102481.75;;;9.50;61.83
46690;BME280;32423;45.398;10.874;2022-12-18T11:26:20;102486.34;;;9.44;62.51
46690;BME280;32423;45.398;10.874;2022-12-18T11:29:09;102468.72;;;9.52;62.26
46690;BME280;32423;45.398;10.874;2022-12-18T11:37:54;102468.81;;;9.72;61.33
46690;BME280;32423;45.398;10.874;2022-12-18T11:40:42;102470.47;;;9.78;61.93
46690;BME280;32423;45.398;10.874;2022-12-18T11:43:29;102469.41;;;9.90;61.71
46690;BME280;32423;45.398;10.874;2022-12-18T11:46:23;102460.97;;;9.91;60.19
46690;BME280;32423;45.398;10.874;2022-12-18T11:49:14;102455.28;;;9.87;60.03
46690;BME280;32423;45.398;10.874;2022-12-18T11:54:45;102465.59;;;9.96;58.80
46690;BME280;32423;45.398;10.874;2022-12-18T12:00:19;102453.41;;;10.03;58.29
46690;BME280;32423;45.398;10.874;2022-12-18T12:06:03;102458.25;;;9.86;58.54
46690;BME280;32423;45.398;10.874;2022-12-18T12:26:05;102451.78;;;10.07;57.15
46690;BME280;32423;45.398;10.874;2022-12-18T12:40:30;102445.06;;;10.25;53.75
46690;BME280;32423;45.398;10.874;2022-12-18T12:43:21;102449.13;;;10.27;54.38
46690;BME280;32423;45.398;10.874;2022-12-18T12:46:08;102445.06;;;10.35;54.19
46690;BME280;32423;45.398;10.874;2022-12-18T12:48:58;102443.94;;;10.31;53.68
46690;BME280;32423;45.398;10.874;2022-12-18T12:51:45;102445.88;;;10.51;52.95
46690;BME280;32423;45.398;10.874;2022-12-18T12:54:31;102444.78;;;10.57;53.93
46690;BME280;32423;45.398;10.874;2022-12-18T12:57:27;102445.88;;;10.51;53.21
46690;BME280;32423;45.398;10.874;2022-12-18T13:00:16;102439.31;;;10.72;52.10
46690;BME280;32423;45.398;10.874;2022-12-18T13:03:04;102436.06;;;10.75;51.39
46690;BME280;32423;45.398;10.874;2022-12-18T13:05:59;102434.16;;;10.86;51.17
46690;BME280;32423;45.398;10.874;2022-12-18T13:08:55;102435.47;;;10.93;50.41
46690;BME280;32423;45.398;10.874;2022-12-18T13:14:44;102428.34;;;11.12;50.46
46690;BME280;32423;45.398;10.874;2022-12-18T13:17:29;102422.41;;;11.00;50.30
46690;BME280;32423;45.398;10.874;2022-12-18T13:20:14;102421.78;;;11.24;50.20
46690;BME280;32423;45.398;10.874;2022-12-18T13:22:59;102419.00;;;11.39;49.54
46690;BME280;32423;45.398;10.874;2022-12-18T13:25:43;102420.38;;;11.41;49.58
46690;BME280;32423;45.398;10.874;2022-12-18T13:34:25;102411.53;;;11.65;48.78
46690;BME280;32423;45.398;10.874;2022-12-18T13:51:57;102430.88;;;11.63;50.66
46690;BME280;32423;45.398;10.874;2022-12-18T13:54:42;102428.66;;;11.80;49.72
46690;BME280;32423;45.398;10.874;2022-12-18T13:57:28;102431.66;;;11.79;49.55
46690;BME280;32423;45.398;10.874;2022-12-18T14:03:01;102426.94;;;11.89;48.93
46690;BME280;32423;45.398;10.874;2022-12-18T14:05:45;102425.44;;;11.68;50.55
46690;BME280;32423;45.398;10.874;2022-12-18T14:08:34;102426.03;;;11.55;50.27
46690;BME280;32423;45.398;10.874;2022-12-18T14:11:20;102421.25;;;11.86;49.41
46690;BME280;32423;45.398;10.874;2022-12-18T14:14:06;102424.72;;;12.02;48.67
46690;BME280;32423;45.398;10.874;2022-12-18T14:16:51;102420.56;;;12.09;48.23
46690;BME280;32423;45.398;10.874;2022-12-18T14:19:36;102424.69;;;12.07;48.17
46690;BME280;32423;45.398;10.874;2022-12-18T14:22:23;102424.19;;;11.94;48.98
46690;BME280;32423;45.398;10.874;2022-12-18T14:25:15;102417.78;;;11.70;50.59
46690;BME280;32423;45.398;10.874;2022-12-18T14:30:50;102414.66;;;11.33;51.60
46690;BME280;32423;45.398;10.874;2022-12-18T14:33:34;102416.53;;;11.47;51.52
46690;BME280;32423;45.398;10.874;2022-12-18T14:36:23;102408.13;;;11.39;52.13
46690;BME280;32423;45.398;10.874;2022-12-18T14:39:13;102408.16;;;11.29;52.52
46690;BME280;32423;45.398;10.874;2022-12-18T14:42:00;102414.16;;;11.31;52.46
46690;BME280;32423;45.398;10.874;2022-12-18T14:44:45;102420.16;;;11.18;52.96
46690;BME280;32423;45.398;10.874;2022-12-18T14:47:29;102427.53;;;11.22;53.05
46690;BME280;32423;45.398;10.874;2022-12-18T14:50:13;102429.19;;;11.03;53.99
46690;BME280;32423;45.398;10.874;2022-12-18T14:52:58;102436.03;;;11.00;54.29
46690;BME280;32423;45.398;10.874;2022-12-18T14:55:45;102437.38;;;11.03;54.25
46690;BME280;32423;45.398;10.874;2022-12-18T14:58:31;102445.78;;;11.17;53.41
46690;BME280;32423;45.398;10.874;2022-12-18T15:01:19;102437.63;;;11.11;53.53
46690;BME280;32423;45.398;10.874;2022-12-18T15:04:05;102441.41;;;11.26;53.33
46690;BME280;32423;45.398;10.874;2022-12-18T15:12:46;102452.75;;;11.48;54.07
46690;BME280;32423;45.398;10.874;2022-12-18T15:18:18;102450.91;;;11.33;56.67
46690;BME280;32423;45.398;10.874;2022-12-18T15:21:10;102459.09;;;11.28;57.93
46690;BME280;32423;45.398;10.874;2022-12-18T15:23:54;102458.81;;;11.35;57.94
46690;BME280;32423;45.398;10.874;2022-12-18T15:26:42;102467.00;;;11.25;58.69
46690;BME280;32423;45.398;10.874;2022-12-18T15:29:26;102473.56;;;11.13;59.47
46690;BME280;32423;45.398;10.874;2022-12-18T15:32:17;102473.06;;;11.01;59.85
46690;BME280;32423;45.398;10.874;2022-12-18T15:37:53;102490.22;;;10.87;60.52
46690;BME280;32423;45.398;10.874;2022-12-18T15:40:38;102483.13;;;10.86;60.63
46690;BME280;32423;45.398;10.874;2022-12-18T15:43:22;102479.06;;;10.78;60.99
46690;BME280;32423;45.398;10.874;2022-12-18T15:46:20;102501.09;;;10.87;60.76
46690;BME280;32423;45.398;10.874;2022-12-18T15:49:05;102497.84;;;10.80;60.81
46690;BME280;32423;45.398;10.874;2022-12-18T15:51:51;102504.63;;;10.72;60.89
46690;BME280;32423;45.398;10.874;2022-12-18T15:54:37;102507.09;;;10.68;61.03
46690;BME280;32423;45.398;10.874;2022-12-18T15:57:40;102500.81;;;10.78;60.71
46690;BME280;32423;45.398;10.874;2022-12-18T16:00:25;102506.00;;;10.75;61.34
46690;BME280;32423;45.398;10.874;2022-12-18T16:03:09;102503.53;;;10.73;60.78
46690;BME280;32423;45.398;10.874;2022-12-18T16:05:54;102516.06;;;10.79;60.43
46690;BME280;32423;45.398;10.874;2022-12-18T16:08:38;102508.97;;;10.68;60.67
46690;BME280;32423;45.398;10.874;2022-12-18T16:11:24;102502.97;;;10.20;62.13
46690;BME280;32423;45.398;10.874;2022-12-18T16:14:23;102507.31;;;10.42;61.55
46690;BME280;32423;45.398;10.874;2022-12-18T16:17:10;102511.16;;;10.46;61.35
46690;BME280;32423;45.398;10.874;2022-12-18T16:19:55;102515.78;;;10.55;61.04
46690;BME280;32423;45.398;10.874;2022-12-18T16:22:40;102519.59;;;10.44;60.92
46690;BME280;32423;45.398;10.874;2022-12-18T16:25:26;102528.22;;;10.26;61.58
46690;BME280;32423;45.398;10.874;2022-12-18T16:28:11;102519.00;;;10.32;61.17
46690;BME280;32423;45.398;10.874;2022-12-18T16:30:56;102523.09;;;10.35;61.14
46690;BME280;32423;45.398;10.874;2022-12-18T16:33:40;102529.53;;;10.13;61.16
46690;BME280;32423;45.398;10.874;2022-12-18T16:36:24;102523.38;;;10.33;60.40
46690;BME280;32423;45.398;10.874;2022-12-18T16:39:09;102525.00;;;10.34;60.33
46690;BME280;32423;45.398;10.874;2022-12-18T16:41:53;102520.28;;;10.04;61.17
46690;BME280;32423;45.398;10.874;2022-12-18T16:44:38;102529.03;;;10.21;60.45
46690;BME280;32423;45.398;10.874;2022-12-18T16:47:26;102529.53;;;10.13;60.06
46690;BME280;32423;45.398;10.874;2022-12-18T16:50:10;102532.22;;;9.98;60.63
46690;BME280;32423;45.398;10.874;2022-12-18T16:52:55;102527.59;;;9.99;61.03
46690;BME280;32423;45.398;10.874;2022-12-18T16:55:39;102527.31;;;9.90;60.38
46690;BME280;32423;45.398;10.874;2022-12-18T16:58:24;102522.88;;;9.69;61.22
46690;BME280;32423;45.398;10.874;2022-12-18T17:01:09;102523.19;;;9.82;60.73
46690;BME280;32423;45.398;10.874;2022-12-18T17:03:58;102516.41;;;9.85;60.53
46690;BME280;32423;45.398;10.874;2022-12-18T17:06:44;102517.44;;;9.69;60.65